Time;durP1;ratioP1;P1;durP2;ratioP2;P2;SDS_P1;SDS_P2;PMS_P1;PMS_P2;Temp;Humidity;BMP_temperature;BMP_pressure;BME280_temperature;BME280_humidity;BME280_pressure;Samples;Min_cycle;Max_cycle;Signal;HPM_P1;HPM_P2
2023/09/29 00:01:27;;;;;;;11.55;2.42;;;18.10;99.90;;;;;;5075434;28;20044;-40
2023/09/29 00:03:53;;;;;;;8.43;2.40;;;18.10;99.90;;;;;;5075521;28;20028;-38
2023/09/29 00:06:19;;;;;;;13.88;2.15;;;18.10;99.90;;;;;;5071447;28;20086;-38
2023/09/29 00:08:45;;;;;;;5.03;1.63;;;18.10;99.90;;;;;;5069797;28;20462;-39
2023/09/29 00:11:14;;;;;;;6.93;2.20;;;18.10;99.90;;;;;;5075161;28;20023;-38
2023/09/29 00:13:39;;;;;;;10.70;2.13;;;18.10;99.90;;;;;;5075480;28;20032;-39
2023/09/29 00:16:05;;;;;;;10.30;2.38;;;18.20;99.90;;;;;;5073470;28;20363;-39
2023/09/29 00:18:31;;;;;;;15.40;2.55;;;18.20;99.90;;;;;;5075135;28;20024;-39
2023/09/29 00:20:57;;;;;;;7.35;1.95;;;18.20;99.90;;;;;;5073841;28;20033;-41
2023/09/29 00:23:23;;;;;;;14.18;2.10;;;18.20;99.90;;;;;;5072968;28;20397;-38
2023/09/29 00:25:48;;;;;;;7.55;1.70;;;18.20;99.90;;;;;;5070013;28;20036;-42
2023/09/29 00:28:14;;;;;;;4.88;1.88;;;18.20;99.90;;;;;;5054919;28;20512;-39
2023/09/29 00:30:40;;;;;;;10.27;2.25;;;18.30;99.90;;;;;;5054870;28;20040;-39
2023/09/29 00:33:05;;;;;;;14.30;2.83;;;18.30;99.90;;;;;;5054897;28;20025;-38
2023/09/29 00:35:33;;;;;;;8.93;3.80;;;18.30;99.90;;;;;;5054836;28;20083;-39
2023/09/29 00:38:00;;;;;;;7.38;1.90;;;18.40;99.90;;;;;;5067465;28;20024;-38
2023/09/29 00:40:27;;;;;;;8.47;1.87;;;18.50;99.90;;;;;;5074375;28;20092;-38
2023/09/29 00:42:53;;;;;;;10.77;2.50;;;18.50;99.90;;;;;;5073640;28;20278;-39
2023/09/29 00:45:25;;;;;;;8.73;2.40;;;18.40;99.90;;;;;;5074435;28;20376;-37
2023/09/29 00:48:07;;;;;;;8.45;2.13;;;18.40;99.90;;;;;;5074243;28;20020;-40
2023/09/29 00:50:34;;;;;;;5.55;1.65;;;18.40;99.90;;;;;;5072968;28;20473;-41
2023/09/29 00:53:09;;;;;;;8.00;2.70;;;18.40;99.90;;;;;;5074191;28;20071;-38
2023/09/29 00:55:36;;;;;;;6.18;2.28;;;18.40;99.90;;;;;;5074170;28;20404;-39
2023/09/29 00:58:02;;;;;;;12.95;3.22;;;18.40;99.90;;;;;;5074196;28;20039;-38
2023/09/29 01:00:32;;;;;;;14.13;3.42;;;18.40;99.90;;;;;;5073409;28;20032;-39
2023/09/29 01:03:02;;;;;;;8.60;1.80;;;18.40;99.90;;;;;;5074024;28;20024;-40
2023/09/29 01:05:32;;;;;;;10.85;2.03;;;18.40;99.90;;;;;;5069726;28;20024;-40
2023/09/29 01:07:57;;;;;;;11.20;2.72;;;18.40;99.90;;;;;;5072431;28;20044;-41
2023/09/29 01:10:24;;;;;;;12.23;2.72;;;18.40;99.90;;;;;;5073962;28;20045;-38
2023/09/29 01:12:50;;;;;;;11.85;2.30;;;18.40;99.90;;;;;;5074003;28;20485;-40
2023/09/29 01:15:17;;;;;;;8.32;2.22;;;18.50;99.90;;;;;;5074084;28;20477;-39
2023/09/29 01:17:43;;;;;;;7.25;1.95;;;18.60;99.90;;;;;;5073602;28;20047;-39
2023/09/29 01:20:16;;;;;;;13.13;2.60;;;18.60;99.90;;;;;;5071874;28;20209;-39
2023/09/29 01:22:48;;;;;;;7.07;1.88;;;18.50;99.90;;;;;;5074217;28;20081;-38
2023/09/29 01:25:15;;;;;;;6.85;1.95;;;18.50;99.90;;;;;;5074092;28;20028;-38
2023/09/29 01:27:41;;;;;;;18.27;2.80;;;18.50;99.90;;;;;;5072610;28;20040;-38
2023/09/29 01:30:07;;;;;;;8.15;1.70;;;18.60;99.90;;;;;;5073809;28;20402;-38
2023/09/29 01:32:33;;;;;;;10.85;1.88;;;18.60;99.90;;;;;;5072706;28;20020;-39
2023/09/29 01:35:00;;;;;;;7.18;1.95;;;18.60;99.90;;;;;;5073417;28;20025;-39
2023/09/29 01:37:25;;;;;;;5.30;1.80;;;18.60;99.90;;;;;;5073595;28;20025;-39
2023/09/29 01:39:51;;;;;;;16.05;2.60;;;18.60;99.90;;;;;;5072900;28;20034;-38
2023/09/29 01:42:18;;;;;;;5.78;1.83;;;18.70;99.90;;;;;;5073532;28;20052;-40
2023/09/29 01:44:44;;;;;;;5.47;1.70;;;18.70;99.90;;;;;;5073410;28;20028;-37
2023/09/29 01:47:10;;;;;;;13.40;2.78;;;18.70;99.90;;;;;;5072493;28;20032;-39
2023/09/29 01:49:38;;;;;;;7.78;1.77;;;18.60;99.90;;;;;;5073020;28;20400;-39
2023/09/29 01:52:04;;;;;;;15.38;1.98;;;18.60;99.90;;;;;;5073611;28;20116;-38
2023/09/29 01:54:29;;;;;;;13.20;2.65;;;18.60;99.90;;;;;;5073050;28;20460;-41
2023/09/29 01:56:55;;;;;;;12.55;2.35;;;18.60;99.90;;;;;;5073517;28;20033;-39
2023/09/29 01:59:21;;;;;;;9.45;2.28;;;18.60;99.90;;;;;;5072044;28;20032;-40
2023/09/29 02:01:48;;;;;;;8.50;2.60;;;18.60;99.90;;;;;;5072368;28;20029;-38
2023/09/29 02:04:14;;;;;;;11.32;2.13;;;18.60;99.90;;;;;;5072816;28;20504;-40
2023/09/29 02:06:40;;;;;;;8.60;2.88;;;18.60;99.90;;;;;;5073406;28;20025;-38
2023/09/29 02:09:09;;;;;;;7.90;2.78;;;18.60;99.90;;;;;;5072641;28;20129;-40
2023/09/29 02:11:38;;;;;;;5.72;1.88;;;18.60;99.90;;;;;;5072045;28;20023;-40
2023/09/29 02:14:05;;;;;;;7.40;2.78;;;18.70;99.90;;;;;;5073238;28;20033;-39
2023/09/29 02:16:30;;;;;;;11.82;2.80;;;18.70;99.90;;;;;;5072931;28;20028;-39
2023/09/29 02:18:56;;;;;;;10.50;2.15;;;18.70;99.90;;;;;;5071763;28;20023;-39
2023/09/29 02:21:23;;;;;;;7.93;1.85;;;18.70;99.90;;;;;;5073183;28;20048;-39
2023/09/29 02:23:48;;;;;;;7.80;2.22;;;18.60;99.90;;;;;;5072934;28;20028;-39
2023/09/29 02:26:15;;;;;;;14.27;2.15;;;18.70;99.90;;;;;;5073143;28;20036;-38
2023/09/29 02:28:40;;;;;;;9.30;2.05;;;18.70;99.90;;;;;;5071632;28;20032;-37
2023/09/29 02:31:13;;;;;;;7.82;2.00;;;18.70;99.90;;;;;;5073145;28;20077;-40
2023/09/29 02:33:40;;;;;;;10.23;2.95;;;18.70;99.90;;;;;;5070349;28;20036;-41
2023/09/29 02:36:06;;;;;;;7.55;2.35;;;18.70;99.90;;;;;;5072424;28;20032;-38
2023/09/29 02:38:32;;;;;;;7.80;2.10;;;18.70;99.90;;;;;;5072421;28;20111;-39
2023/09/29 02:40:59;;;;;;;6.00;2.00;;;18.70;99.90;;;;;;5073064;28;20372;-39
2023/09/29 02:43:32;;;;;;;10.18;3.17;;;18.70;99.90;;;;;;5071777;28;20024;-40
2023/09/29 02:45:58;;;;;;;9.23;2.42;;;18.70;99.90;;;;;;5071523;28;20043;-38
2023/09/29 02:48:24;;;;;;;5.70;2.40;;;18.70;99.90;;;;;;5071299;28;20485;-38
2023/09/29 02:50:50;;;;;;;7.18;1.70;;;18.70;99.90;;;;;;5070705;28;20025;-38
2023/09/29 02:53:15;;;;;;;12.63;2.50;;;18.70;99.90;;;;;;5070572;28;20047;-40
2023/09/29 02:55:43;;;;;;;17.95;2.47;;;18.70;99.90;;;;;;5072089;28;20077;-39
2023/09/29 02:58:09;;;;;;;15.18;2.35;;;18.70;99.90;;;;;;5072567;28;20477;-43
2023/09/29 03:00:35;;;;;;;5.22;1.95;;;18.70;99.90;;;;;;5072459;28;20043;-39
2023/09/29 03:03:02;;;;;;;7.00;1.98;;;18.80;99.90;;;;;;5071483;28;20035;-38
2023/09/29 03:05:28;;;;;;;11.82;3.00;;;18.80;99.90;;;;;;5071646;28;20029;-40
2023/09/29 03:07:55;;;;;;;5.35;2.08;;;18.70;99.90;;;;;;5072385;28;20032;-39
2023/09/29 03:10:25;;;;;;;6.75;2.08;;;18.80;99.90;;;;;;5071203;28;20094;-40
2023/09/29 03:12:51;;;;;;;4.60;2.42;;;18.80;99.90;;;;;;5072705;28;20029;-38
2023/09/29 03:15:17;;;;;;;7.40;1.77;;;18.90;99.90;;;;;;5072425;28;20465;-38
2023/09/29 03:17:44;;;;;;;8.20;2.03;;;18.90;99.90;;;;;;5071391;28;20029;-38
2023/09/29 03:20:14;;;;;;;8.90;2.63;;;18.80;99.90;;;;;;5071807;28;20024;-40
2023/09/29 03:22:47;;;;;;;15.35;3.15;;;18.80;99.90;;;;;;5072220;28;20119;-39
2023/09/29 03:25:16;;;;;;;4.00;1.83;;;18.70;99.90;;;;;;5072499;28;20489;-39
2023/09/29 03:27:43;;;;;;;9.45;2.25;;;18.70;99.90;;;;;;5072480;28;20024;-38
2023/09/29 03:30:10;;;;;;;6.53;2.28;;;18.70;99.90;;;;;;5071018;28;20025;-40
2023/09/29 03:32:35;;;;;;;6.63;2.13;;;18.60;99.90;;;;;;5072035;28;20020;-38
2023/09/29 03:35:04;;;;;;;4.53;2.03;;;18.50;99.90;;;;;;5072248;28;20016;-39
2023/09/29 03:37:32;;;;;;;7.07;1.80;;;18.40;99.90;;;;;;5072265;28;20021;-40
2023/09/29 03:39:58;;;;;;;9.05;2.00;;;18.30;99.90;;;;;;5071673;28;20603;-42
2023/09/29 03:42:26;;;;;;;7.60;2.38;;;18.30;99.90;;;;;;5071458;28;20028;-38
2023/09/29 03:44:51;;;;;;;7.35;2.63;;;18.30;99.90;;;;;;5072082;28;20109;-39
2023/09/29 03:47:17;;;;;;;10.50;2.95;;;18.20;99.90;;;;;;5070786;28;20079;-39
2023/09/29 03:49:43;;;;;;;14.18;2.75;;;18.20;99.90;;;;;;5071016;28;20033;-43
2023/09/29 03:52:08;;;;;;;9.13;3.45;;;18.20;99.90;;;;;;5075541;28;20024;-38
2023/09/29 03:54:34;;;;;;;3.53;2.20;;;18.10;99.90;;;;;;5073614;28;20108;-39
2023/09/29 03:57:10;;;;;;;7.60;2.35;;;18.10;99.90;;;;;;5075840;28;20465;-39
2023/09/29 03:59:36;;;;;;;8.18;2.47;;;18.00;99.90;;;;;;5074479;28;20059;-38
2023/09/29 04:02:02;;;;;;;10.77;2.75;;;18.00;99.90;;;;;;5075623;28;20035;-41
2023/09/29 04:04:28;;;;;;;7.50;2.00;;;18.00;99.90;;;;;;5075242;28;20444;-39
2023/09/29 04:06:53;;;;;;;7.78;2.55;;;18.00;99.90;;;;;;5074149;28;20112;-41
2023/09/29 04:09:20;;;;;;;5.80;1.98;;;18.00;99.90;;;;;;5074621;28;20048;-39
2023/09/29 04:11:46;;;;;;;6.90;2.50;;;17.90;99.90;;;;;;5075422;28;20025;-40
2023/09/29 04:14:12;;;;;;;7.13;2.33;;;17.90;99.90;;;;;;5074558;28;20150;-38
2023/09/29 04:16:37;;;;;;;8.00;2.58;;;17.90;99.90;;;;;;5075519;28;20029;-40
2023/09/29 04:19:03;;;;;;;7.10;2.58;;;18.00;99.90;;;;;;5075098;28;20027;-40
2023/09/29 04:21:29;;;;;;;4.95;1.80;;;18.00;99.90;;;;;;5072086;28;20396;-39
2023/09/29 04:23:54;;;;;;;12.13;2.65;;;18.00;99.90;;;;;;5068607;28;20033;-38
2023/09/29 04:26:21;;;;;;;9.55;2.33;;;18.00;99.90;;;;;;5057182;28;20032;-40
2023/09/29 04:28:48;;;;;;;10.20;3.28;;;18.00;99.90;;;;;;5074082;28;20117;-38
2023/09/29 04:31:14;;;;;;;5.85;2.05;;;18.00;99.90;;;;;;5075105;28;20393;-38
2023/09/29 04:33:40;;;;;;;7.30;2.35;;;18.00;99.90;;;;;;5075164;28;20013;-40
2023/09/29 04:36:06;;;;;;;6.38;1.92;;;18.00;99.90;;;;;;5074859;28;20092;-38
2023/09/29 04:38:32;;;;;;;3.80;2.15;;;18.00;99.90;;;;;;5074774;28;20017;-40
2023/09/29 04:40:58;;;;;;;5.97;2.28;;;18.00;99.90;;;;;;5067921;28;20036;-40
2023/09/29 04:43:24;;;;;;;8.05;2.20;;;18.00;99.90;;;;;;5060690;28;20032;-38
2023/09/29 04:45:50;;;;;;;7.10;2.00;;;18.00;99.90;;;;;;5074266;28;20108;-38
2023/09/29 04:48:16;;;;;;;9.73;2.17;;;18.10;99.90;;;;;;5072751;28;20462;-41
2023/09/29 04:50:42;;;;;;;4.97;1.98;;;18.10;99.90;;;;;;5073025;28;20027;-41
2023/09/29 04:53:08;;;;;;;7.90;2.83;;;18.10;99.90;;;;;;5074691;28;20484;-40
2023/09/29 04:55:34;;;;;;;3.67;1.58;;;18.10;99.90;;;;;;5074532;28;20035;-38
2023/09/29 04:57:59;;;;;;;3.30;1.67;;;18.10;99.90;;;;;;5066451;28;20025;-38
2023/09/29 05:00:26;;;;;;;6.53;2.40;;;18.20;99.90;;;;;;5064673;28;20378;-38
2023/09/29 05:02:52;;;;;;;4.53;1.65;;;18.20;99.90;;;;;;5074066;28;20025;-41
2023/09/29 05:05:18;;;;;;;6.00;1.70;;;18.20;99.90;;;;;;5074581;28;20097;-38
2023/09/29 05:07:44;;;;;;;6.95;2.28;;;18.30;99.90;;;;;;5073063;28;20021;-38
2023/09/29 05:10:11;;;;;;;14.77;3.10;;;18.30;99.90;;;;;;5072871;28;20037;-39
2023/09/29 05:12:37;;;;;;;5.05;2.00;;;18.30;99.90;;;;;;5073410;28;20077;-38
2023/09/29 05:15:04;;;;;;;6.28;1.70;;;18.30;99.90;;;;;;5068842;28;20367;-40
2023/09/29 05:17:29;;;;;;;8.73;1.73;;;18.40;99.90;;;;;;5074313;28;20024;-41
2023/09/29 05:19:55;;;;;;;4.05;1.58;;;18.40;99.90;;;;;;5073988;28;20684;-39
2023/09/29 05:22:21;;;;;;;5.40;1.90;;;18.30;99.90;;;;;;5071930;28;20050;-40
2023/09/29 05:24:47;;;;;;;8.07;2.17;;;18.40;99.90;;;;;;5072480;28;20025;-38
2023/09/29 05:27:13;;;;;;;3.53;2.28;;;18.30;99.90;;;;;;5072780;28;20028;-41
2023/09/29 05:29:39;;;;;;;4.43;1.70;;;18.40;99.90;;;;;;5073552;28;20108;-39
2023/09/29 05:32:05;;;;;;;5.80;2.00;;;18.40;99.90;;;;;;5064963;28;20132;-37
2023/09/29 05:34:30;;;;;;;3.55;1.60;;;18.40;99.90;;;;;;5086643;28;20099;-38
2023/09/29 05:36:56;;;;;;;4.18;2.03;;;18.40;99.90;;;;;;5093933;28;20492;-38
2023/09/29 05:39:23;;;;;;;5.32;2.00;;;18.50;99.90;;;;;;5093862;28;20039;-40
2023/09/29 05:41:49;;;;;;;10.07;2.30;;;18.50;99.90;;;;;;5090743;28;20063;-42
2023/09/29 05:44:15;;;;;;;3.22;1.60;;;18.50;99.90;;;;;;5073794;28;20110;-37
2023/09/29 05:46:41;;;;;;;6.10;1.98;;;18.60;99.90;;;;;;5073456;28;20036;-38
2023/09/29 05:49:09;;;;;;;3.03;1.90;;;18.70;99.90;;;;;;5065286;28;20025;-37
2023/09/29 05:51:35;;;;;;;8.07;1.30;;;18.60;99.90;;;;;;5064844;28;20021;-40
2023/09/29 05:54:02;;;;;;;3.95;1.83;;;18.70;99.90;;;;;;5053332;28;20389;-39
2023/09/29 05:56:29;;;;;;;7.40;1.95;;;18.70;99.90;;;;;;5060693;28;20016;-40
2023/09/29 05:58:55;;;;;;;4.25;1.70;;;18.70;99.90;;;;;;5073102;28;20553;-41
2023/09/29 06:01:22;;;;;;;1.70;1.58;;;18.80;99.90;;;;;;5071830;28;20107;-39
2023/09/29 06:03:47;;;;;;;3.10;1.30;;;18.80;99.90;;;;;;5072725;28;20070;-42
2023/09/29 06:06:13;;;;;;;3.20;1.33;;;18.80;99.90;;;;;;5072522;28;20446;-42
2023/09/29 06:08:39;;;;;;;4.68;1.52;;;18.80;99.90;;;;;;5072338;28;20031;-40
2023/09/29 06:11:05;;;;;;;2.05;1.27;;;18.80;99.90;;;;;;5072001;28;20028;-43
2023/09/29 06:13:32;;;;;;;6.78;1.85;;;18.80;99.90;;;;;;5071529;28;20111;-41
2023/09/29 06:15:58;;;;;;;8.00;1.55;;;18.90;99.90;;;;;;5070019;28;20052;-40
2023/09/29 06:18:24;;;;;;;4.93;1.85;;;18.90;99.90;;;;;;5073249;28;20068;-39
2023/09/29 06:20:50;;;;;;;2.28;2.08;;;19.00;99.90;;;;;;5072688;28;20103;-38
2023/09/29 06:23:16;;;;;;;6.70;1.98;;;19.00;99.90;;;;;;5072077;28;20112;-41
2023/09/29 06:25:41;;;;;;;5.18;2.05;;;19.10;99.90;;;;;;5072583;28;20244;-39
2023/09/29 06:28:07;;;;;;;4.47;1.80;;;19.10;99.90;;;;;;5069188;28;20412;-39
2023/09/29 06:30:33;;;;;;;3.67;1.20;;;19.10;99.90;;;;;;5066429;28;20025;-42
2023/09/29 06:32:58;;;;;;;2.90;1.38;;;19.10;99.90;;;;;;5068281;28;20025;-39
2023/09/29 06:35:24;;;;;;;4.80;1.90;;;19.10;99.90;;;;;;5064290;28;20023;-40
2023/09/29 06:37:51;;;;;;;2.60;1.55;;;19.10;99.90;;;;;;5067356;28;20527;-39
2023/09/29 06:40:17;;;;;;;7.88;1.77;;;19.20;99.90;;;;;;5067097;28;20016;-39
2023/09/29 06:42:42;;;;;;;4.00;1.30;;;19.20;99.90;;;;;;5064558;28;20024;-39
2023/09/29 06:45:09;;;;;;;2.95;1.40;;;19.20;99.90;;;;;;5063752;28;20469;-38
2023/09/29 06:47:35;;;;;;;5.00;1.75;;;19.20;99.90;;;;;;5064026;28;20555;-38
2023/09/29 06:50:01;;;;;;;5.00;1.65;;;19.20;99.90;;;;;;5072607;28;20024;-37
2023/09/29 06:52:27;;;;;;;2.55;1.52;;;19.30;99.90;;;;;;5072569;28;20465;-38
2023/09/29 06:54:53;;;;;;;3.47;1.70;;;19.30;99.90;;;;;;5072416;28;20082;-38
2023/09/29 06:57:18;;;;;;;4.68;1.80;;;19.30;99.90;;;;;;5068477;28;20113;-39
2023/09/29 06:59:44;;;;;;;2.95;1.50;;;19.30;99.90;;;;;;5072728;28;20017;-40
2023/09/29 07:02:10;;;;;;;7.47;2.15;;;19.30;99.90;;;;;;5072471;28;20032;-39
2023/09/29 07:04:36;;;;;;;4.13;1.92;;;19.30;99.90;;;;;;5072410;28;20492;-40
2023/09/29 07:07:01;;;;;;;3.28;1.70;;;19.40;99.90;;;;;;5071539;28;20497;-41
2023/09/29 07:09:28;;;;;;;4.82;1.80;;;19.40;99.90;;;;;;5072345;28;20119;-41
2023/09/29 07:11:54;;;;;;;4.05;1.80;;;19.50;99.90;;;;;;5072415;28;20516;-38
2023/09/29 07:14:20;;;;;;;3.13;1.35;;;19.60;99.90;;;;;;5071558;28;20025;-38
2023/09/29 07:16:49;;;;;;;4.60;1.73;;;19.60;99.90;;;;;;5072072;28;20477;-39
2023/09/29 07:19:15;;;;;;;2.97;1.77;;;19.70;99.90;;;;;;5071655;28;20028;-36
2023/09/29 07:21:41;;;;;;;2.47;1.77;;;19.80;99.90;;;;;;5071939;28;20035;-38
2023/09/29 07:24:07;;;;;;;5.93;1.75;;;19.80;99.90;;;;;;5071641;28;20031;-38
2023/09/29 07:26:33;;;;;;;3.83;1.73;;;19.80;99.90;;;;;;5076052;28;20087;-38
2023/09/29 07:29:01;;;;;;;4.18;1.90;;;19.90;99.90;;;;;;5076039;28;20060;-38
2023/09/29 07:31:35;;;;;;;5.40;1.58;;;19.90;99.90;;;;;;5065219;28;20062;-40
2023/09/29 07:34:01;;;;;;;3.10;1.63;;;19.90;99.90;;;;;;5056036;28;20095;-38
2023/09/29 07:36:29;;;;;;;4.35;1.58;;;19.90;99.90;;;;;;5056247;28;20024;-38
2023/09/29 07:38:54;;;;;;;3.55;1.25;;;20.00;99.90;;;;;;5062704;28;20024;-38
2023/09/29 07:41:20;;;;;;;4.55;1.40;;;20.00;99.90;;;;;;5066695;28;20020;-41
2023/09/29 07:43:46;;;;;;;2.47;1.20;;;20.00;99.90;;;;;;5075733;28;20488;-39
2023/09/29 07:46:12;;;;;;;3.00;1.40;;;20.00;99.90;;;;;;5075717;28;20028;-39
2023/09/29 07:48:38;;;;;;;2.65;1.65;;;20.00;99.90;;;;;;5074705;28;20024;-36
2023/09/29 07:51:04;;;;;;;4.25;1.52;;;20.00;99.90;;;;;;5075415;28;20021;-37
2023/09/29 07:53:30;;;;;;;8.18;2.05;;;20.00;99.90;;;;;;5075600;28;20029;-38
2023/09/29 07:55:55;;;;;;;3.75;1.73;;;20.00;99.90;;;;;;5075526;28;20020;-38
2023/09/29 07:58:21;;;;;;;3.80;1.50;;;20.10;99.90;;;;;;5063050;28;20536;-38
2023/09/29 08:00:47;;;;;;;5.55;2.10;;;20.10;99.90;;;;;;5055569;28;20032;-38
2023/09/29 08:03:12;;;;;;;4.25;1.77;;;20.10;99.90;;;;;;5055540;28;20454;-37
2023/09/29 08:05:38;;;;;;;4.93;1.60;;;20.10;99.90;;;;;;5067755;28;20028;-38
2023/09/29 08:08:05;;;;;;;3.47;1.88;;;20.10;99.90;;;;;;5075075;28;20020;-40
2023/09/29 08:10:32;;;;;;;4.05;1.70;;;20.10;99.90;;;;;;5074952;28;20044;-40
2023/09/29 08:12:57;;;;;;;2.90;1.98;;;20.20;99.90;;;;;;5073665;28;20477;-41
2023/09/29 08:15:24;;;;;;;3.38;1.50;;;20.20;99.90;;;;;;5073498;28;20024;-39
2023/09/29 08:17:50;;;;;;;2.67;2.13;;;20.20;99.90;;;;;;5073933;28;20500;-40
2023/09/29 08:20:17;;;;;;;2.45;1.83;;;20.30;99.90;;;;;;5075220;28;20321;-39
2023/09/29 08:22:43;;;;;;;2.10;1.65;;;20.30;99.90;;;;;;5056435;28;20013;-40
2023/09/29 08:25:09;;;;;;;8.63;1.85;;;20.40;99.90;;;;;;5075142;28;20021;-39
2023/09/29 08:27:38;;;;;;;4.53;1.80;;;20.40;99.90;;;;;;5075084;28;20022;-39
2023/09/29 08:30:05;;;;;;;1.75;1.65;;;20.40;99.90;;;;;;5074922;28;20035;-38
2023/09/29 08:32:31;;;;;;;3.85;1.98;;;20.50;99.90;;;;;;5074033;28;20017;-40
2023/09/29 08:34:58;;;;;;;3.83;1.90;;;20.50;99.90;;;;;;5074789;28;20028;-38
2023/09/29 08:37:24;;;;;;;5.22;1.73;;;20.70;99.90;;;;;;5072335;28;20040;-44
2023/09/29 08:39:50;;;;;;;3.08;2.05;;;20.80;99.90;;;;;;5074235;28;20063;-40
2023/09/29 08:42:38;;;;;;;6.63;2.00;;;20.90;99.90;;;;;;5074887;28;20086;-40
2023/09/29 08:45:13;;;;;;;8.75;2.03;;;21.00;99.90;;;;;;5054681;28;20033;-39
2023/09/29 08:47:40;;;;;;;3.67;2.20;;;21.10;99.90;;;;;;5054783;28;20484;-39
2023/09/29 08:50:09;;;;;;;3.73;2.00;;;21.10;99.90;;;;;;5070717;28;20496;-40
2023/09/29 08:52:35;;;;;;;5.60;1.55;;;21.10;99.90;;;;;;5074552;28;20277;-39
2023/09/29 08:55:05;;;;;;;2.63;1.90;;;21.20;99.90;;;;;;5074519;28;20049;-38
2023/09/29 08:57:31;;;;;;;4.60;1.60;;;21.20;99.90;;;;;;5053719;28;20025;-41
2023/09/29 08:59:58;;;;;;;2.25;1.65;;;21.30;99.90;;;;;;5054463;28;20035;-38
2023/09/29 09:02:26;;;;;;;1.80;1.67;;;21.30;99.90;;;;;;5054395;28;20021;-39
2023/09/29 09:04:52;;;;;;;5.25;1.52;;;21.30;99.90;;;;;;5054391;28;20040;-37
2023/09/29 09:07:19;;;;;;;6.05;1.98;;;21.30;99.90;;;;;;5072151;28;20039;-38
2023/09/29 09:09:53;;;;;;;6.57;1.70;;;21.40;99.90;;;;;;5072617;28;20405;-39
2023/09/29 09:12:30;;;;;;;4.90;1.95;;;21.40;99.90;;;;;;5072835;28;20031;-40
2023/09/29 09:14:56;;;;;;;4.72;1.60;;;21.40;99.90;;;;;;5054142;28;20071;-42
2023/09/29 09:17:23;;;;;;;4.38;1.63;;;21.40;99.90;;;;;;5054306;28;20021;-38
2023/09/29 09:19:52;;;;;;;;;;;21.40;99.90;;;;;;5054427;28;20037;-39
2023/09/29 09:22:32;;;;;;;4.10;2.00;;;21.50;99.90;;;;;;5054965;28;19951;-37
2023/09/29 09:25:01;;;;;;;2.25;1.45;;;21.60;99.90;;;;;;5073716;28;20032;-38
2023/09/29 09:27:38;;;;;;;3.17;1.55;;;21.70;99.90;;;;;;5073850;28;20477;-37
2023/09/29 09:30:04;;;;;;;3.13;1.58;;;21.80;99.90;;;;;;5072919;28;20071;-39
2023/09/29 09:32:30;;;;;;;3.08;1.55;;;21.80;99.90;;;;;;5073954;28;20028;-39
2023/09/29 09:34:58;;;;;;;6.40;1.47;;;21.80;99.90;;;;;;5073654;28;20032;-38
2023/09/29 09:37:24;;;;;;;8.38;1.38;;;21.90;99.90;;;;;;5073618;28;20079;-38
2023/09/29 09:39:51;;;;;;;2.60;1.40;;;21.70;99.90;;;;;;5067046;28;20029;-39
2023/09/29 09:42:18;;;;;;;2.92;1.50;;;21.70;99.90;;;;;;5053625;28;20115;-39
2023/09/29 09:44:44;;;;;;;1.75;1.13;;;21.80;99.90;;;;;;5052254;28;20033;-38
2023/09/29 09:47:14;;;;;;;4.28;1.30;;;21.70;99.90;;;;;;5053765;28;20401;-39
2023/09/29 09:49:48;;;;;;;1.80;1.40;;;21.70;99.90;;;;;;5052925;28;20025;-41
2023/09/29 09:52:29;;;;;;;1.95;1.00;;;21.70;99.90;;;;;;5053526;28;20021;-39
2023/09/29 09:54:58;;;;;;;1.35;1.25;;;21.50;99.90;;;;;;5053443;28;20496;-41
2023/09/29 09:57:45;;;;;;;1.30;1.20;;;21.40;99.90;;;;;;5063869;28;20381;-38
2023/09/29 10:00:12;;;;;;;2.42;1.80;;;21.40;99.90;;;;;;5073354;28;20086;-38
2023/09/29 10:02:46;;;;;;;4.30;1.38;;;21.30;99.90;;;;;;5073500;28;20503;-38
2023/09/29 10:05:24;;;;;;;3.55;1.60;;;21.20;99.90;;;;;;5072377;28;20112;-39
2023/09/29 10:07:55;;;;;;;6.40;1.33;;;21.10;99.90;;;;;;5073248;28;20028;-41
2023/09/29 10:10:31;;;;;;;4.32;1.50;;;21.10;99.90;;;;;;5073011;28;20578;-38
2023/09/29 10:12:58;;;;;;;2.83;1.60;;;21.10;99.90;;;;;;5073163;28;20044;-41
2023/09/29 10:15:29;;;;;;;3.70;1.38;;;21.10;99.90;;;;;;5072289;28;20032;-38
2023/09/29 10:18:13;;;;;;;3.53;1.42;;;21.10;99.90;;;;;;5073364;28;20524;-37
2023/09/29 10:20:39;;;;;;;4.40;1.65;;;21.10;99.90;;;;;;5068864;28;20021;-38
2023/09/29 10:23:07;;;;;;;5.30;1.63;;;21.00;99.90;;;;;;5069842;28;20503;-37
2023/09/29 10:25:37;;;;;;;7.00;1.30;;;21.00;99.90;;;;;;5072790;28;20021;-37
2023/09/29 10:28:06;;;;;;;3.38;1.83;;;21.10;99.90;;;;;;5072500;28;20021;-39
2023/09/29 10:30:33;;;;;;;4.53;1.83;;;21.10;99.90;;;;;;5071670;28;20082;-41
2023/09/29 10:33:06;;;;;;;3.60;1.85;;;21.10;99.90;;;;;;5072910;28;20028;-40
2023/09/29 10:35:33;;;;;;;3.97;1.60;;;21.10;99.90;;;;;;5073049;28;20025;-38
2023/09/29 10:38:06;;;;;;;2.85;1.58;;;21.10;99.90;;;;;;5065843;28;20021;-39
2023/09/29 10:40:32;;;;;;;2.83;1.23;;;21.00;99.90;;;;;;5065369;28;20025;-41
2023/09/29 10:43:02;;;;;;;2.78;1.67;;;21.10;99.90;;;;;;5072469;28;20031;-41
2023/09/29 10:45:39;;;;;;;6.80;2.72;;;21.10;99.90;;;;;;5072557;28;20037;-39
2023/09/29 10:48:08;;;;;;;2.75;2.08;;;21.00;99.90;;;;;;5072316;28;20020;-38
2023/09/29 10:50:49;;;;;;;2.78;1.92;;;21.00;99.90;;;;;;5071342;28;20035;-37
2023/09/29 10:53:16;;;;;;;1.90;1.70;;;20.90;99.90;;;;;;5072590;28;20028;-40
2023/09/29 10:55:49;;;;;;;5.50;2.45;;;20.80;99.90;;;;;;5059753;28;20060;-39
2023/09/29 10:58:16;;;;;;;9.48;2.65;;;20.80;99.90;;;;;;5052404;28;20033;-43
2023/09/29 11:00:47;;;;;;;;;;;20.70;99.90;;;;;;5074028;28;20016;-36
2023/09/29 11:03:17;;;;;;;5.03;2.10;;;20.50;99.90;;;;;;5075379;28;19915;-36
2023/09/29 11:05:48;;;;;;;4.57;2.17;;;20.40;99.90;;;;;;5075705;28;20047;-35
2023/09/29 11:08:14;;;;;;;1.88;1.65;;;20.20;99.90;;;;;;5076559;28;20572;-38
2023/09/29 11:10:41;;;;;;;4.33;1.70;;;19.90;99.90;;;;;;5076218;28;20067;-37
2023/09/29 11:13:16;;;;;;;2.17;1.38;;;19.60;99.90;;;;;;5075777;28;20033;-38
2023/09/29 11:15:42;;;;;;;2.97;1.38;;;19.40;99.90;;;;;;5070328;28;20025;-38
2023/09/29 11:18:07;;;;;;;6.10;1.20;;;19.20;99.90;;;;;;5056600;28;20162;-40
2023/09/29 11:20:33;;;;;;;5.13;0.93;;;19.00;99.90;;;;;;5072158;28;20020;-38
2023/09/29 11:23:07;;;;;;;4.25;0.98;;;18.70;99.90;;;;;;5075257;28;20108;-37
2023/09/29 11:25:54;;;;;;;2.88;0.93;;;18.50;99.90;;;;;;5076318;28;20025;-40
2023/09/29 11:28:20;;;;;;;2.60;0.80;;;18.30;99.90;;;;;;5075543;28;20481;-39
2023/09/29 11:30:46;;;;;;;4.88;1.23;;;18.20;99.90;;;;;;5076410;28;20028;-40
2023/09/29 11:33:13;;;;;;;3.58;1.50;;;18.10;99.90;;;;;;5076043;28;20108;-37
2023/09/29 11:35:44;;;;;;;4.43;1.10;;;18.00;99.90;;;;;;5076260;28;20035;-40
2023/09/29 11:38:15;;;;;;;5.93;1.23;;;17.90;99.90;;;;;;5073686;28;20025;-39
2023/09/29 11:40:41;;;;;;;2.35;1.10;;;17.80;99.90;;;;;;5076162;28;20024;-40
2023/09/29 11:43:07;;;;;;;3.25;1.30;;;17.80;99.90;;;;;;5074654;28;20493;-41
2023/09/29 11:45:33;;;;;;;2.50;0.95;;;17.80;99.90;;;;;;5067396;28;20153;-41
2023/09/29 11:47:58;;;;;;;3.50;1.13;;;17.80;99.90;;;;;;5055801;28;20079;-37
2023/09/29 11:50:24;;;;;;;5.05;1.10;;;17.80;99.90;;;;;;5055961;28;20017;-39
2023/09/29 11:52:49;;;;;;;3.97;1.38;;;17.80;99.90;;;;;;5055709;28;20481;-40
2023/09/29 11:55:15;;;;;;;3.22;1.02;;;17.80;99.90;;;;;;5056654;28;20029;-37
2023/09/29 11:57:41;;;;;;;6.90;1.17;;;17.80;99.90;;;;;;5075691;28;20485;-38
2023/09/29 12:00:11;;;;;;;2.75;1.00;;;17.80;99.90;;;;;;5075634;28;20033;-39
2023/09/29 12:02:37;;;;;;;7.75;1.02;;;17.90;99.90;;;;;;5065657;28;20035;-54
2023/09/29 12:05:04;;;;;;;5.22;1.20;;;18.00;99.90;;;;;;5055525;28;20060;-52
2023/09/29 12:07:31;;;;;;;5.20;0.95;;;18.00;99.90;;;;;;5055778;28;20025;-52
2023/09/29 12:09:56;;;;;;;1.80;0.73;;;17.80;99.90;;;;;;5055049;28;20127;-53
2023/09/29 12:12:22;;;;;;;5.85;1.00;;;17.80;99.90;;;;;;5056350;28;20076;-54
2023/09/29 12:14:48;;;;;;;1.83;0.77;;;17.80;99.90;;;;;;5075370;28;20024;-53
2023/09/29 12:17:13;;;;;;;2.78;0.45;;;17.70;99.90;;;;;;5075295;28;20029;-53
2023/09/29 12:19:39;;;;;;;5.32;0.75;;;17.70;99.90;;;;;;5074440;28;20485;-52
2023/09/29 12:22:05;;;;;;;6.95;0.90;;;17.70;99.90;;;;;;5074215;28;20104;-49
2023/09/29 12:24:31;;;;;;;3.78;1.05;;;17.80;99.90;;;;;;5071503;28;20041;-50
2023/09/29 12:26:57;;;;;;;6.53;1.02;;;17.70;99.90;;;;;;5070947;28;20021;-59
2023/09/29 12:29:24;;;;;;;5.28;0.95;;;17.70;99.90;;;;;;5068067;28;20692;-54
2023/09/29 12:31:49;;;;;;;4.40;0.90;;;17.60;99.90;;;;;;5073185;28;20021;-54
2023/09/29 12:34:16;;;;;;;3.35;1.42;;;17.60;99.90;;;;;;5072836;28;20031;-54
2023/09/29 12:36:41;;;;;;;4.78;1.13;;;17.60;99.90;;;;;;5061254;28;20025;-52
2023/09/29 12:39:10;;;;;;;7.07;1.23;;;17.70;99.90;;;;;;5055514;28;20032;-55
2023/09/29 12:41:37;;;;;;;4.47;1.20;;;17.90;99.90;;;;;;5074729;28;20032;-54
2023/09/29 12:44:04;;;;;;;1.80;0.75;;;18.00;99.90;;;;;;5074765;28;20093;-53
2023/09/29 12:46:31;;;;;;;5.05;0.98;;;18.00;99.90;;;;;;5070981;28;20028;-53